createdAt,value
2023-05-11T00:00:50.169Z,12.75
2023-05-11T00:01:50.370Z,12.72
2023-05-11T00:02:50.226Z,12.72
2023-05-11T00:03:50.310Z,12.72
2023-05-11T00:04:50.141Z,12.73
2023-05-11T00:05:50.109Z,12.72
2023-05-11T00:06:50.009Z,12.73
2023-05-11T00:07:50.075Z,12.73
2023-05-11T00:08:50.070Z,12.76
2023-05-11T00:09:50.052Z,12.72
2023-05-11T00:10:50.119Z,12.71
2023-05-11T00:11:50.088Z,12.64
2023-05-11T00:12:50.009Z,12.65
2023-05-11T00:13:49.790Z,12.69
2023-05-11T00:14:50.039Z,12.68
2023-05-11T00:15:49.864Z,12.69
2023-05-11T00:16:50.070Z,12.72
2023-05-11T00:17:49.868Z,12.75
2023-05-11T00:18:50.261Z,12.75
2023-05-11T00:19:49.942Z,12.76
2023-05-11T00:20:50.043Z,12.75
2023-05-11T00:21:49.891Z,12.73
2023-05-11T00:22:50.099Z,12.75
2023-05-11T00:23:49.818Z,12.78
2023-05-11T00:24:49.931Z,12.75
2023-05-11T00:25:49.954Z,12.79
2023-05-11T00:26:49.892Z,12.83
2023-05-11T00:27:50.152Z,12.82
2023-05-11T00:28:49.712Z,12.80
2023-05-11T00:29:49.830Z,12.82
2023-05-11T00:30:49.692Z,12.87
2023-05-11T00:31:49.943Z,12.83
2023-05-11T00:32:49.724Z,12.87
2023-05-11T00:33:50.031Z,12.85
2023-05-11T00:34:49.681Z,12.85
2023-05-11T00:35:49.913Z,12.83
2023-05-11T00:36:49.703Z,12.87
2023-05-11T00:37:49.795Z,12.94
2023-05-11T00:38:49.704Z,12.97
2023-05-11T00:39:49.816Z,12.98
2023-05-11T00:40:49.695Z,12.97
2023-05-11T00:41:49.695Z,13.05
2023-05-11T00:42:49.677Z,13.08
2023-05-11T00:43:49.545Z,13.06
2023-05-11T00:44:49.652Z,13.06
2023-05-11T00:45:49.505Z,13.08
2023-05-11T00:46:49.763Z,13.08
2023-05-11T00:47:49.570Z,13.08
2023-05-11T00:48:50.004Z,13.16
2023-05-11T00:49:49.545Z,13.21
2023-05-11T00:50:49.686Z,13.21
2023-05-11T00:51:49.535Z,13.26
2023-05-11T00:52:49.728Z,13.30
2023-05-11T00:53:49.461Z,13.35
2023-05-11T00:54:49.632Z,13.27
2023-05-11T00:55:49.712Z,13.27
2023-05-11T00:56:49.615Z,13.27
2023-05-11T00:57:49.614Z,13.27
2023-05-11T00:58:49.382Z,13.29
2023-05-11T00:59:49.523Z,13.24
2023-05-11T01:00:49.401Z,13.26
2023-05-11T01:01:49.525Z,13.26
2023-05-11T01:02:49.524Z,13.30
2023-05-11T01:03:49.586Z,13.27
2023-05-11T01:04:49.374Z,13.38
2023-05-11T01:05:49.554Z,13.35
2023-05-11T01:06:49.437Z,13.31
2023-05-11T01:07:49.447Z,13.29
2023-05-11T01:08:49.476Z,13.21
2023-05-11T01:09:49.507Z,13.19
2023-05-11T01:10:49.287Z,13.18
2023-05-11T01:11:49.454Z,13.21
2023-05-11T01:12:49.365Z,13.22
2023-05-11T01:13:49.167Z,13.26
2023-05-11T01:14:49.369Z,13.29
2023-05-11T01:15:49.198Z,13.30
2023-05-11T01:16:49.519Z,13.24
2023-05-11T01:17:49.290Z,13.22
2023-05-11T01:18:49.491Z,13.24
2023-05-11T01:19:49.253Z,13.18
2023-05-11T01:20:49.411Z,13.19
2023-05-11T01:21:49.260Z,13.22
2023-05-11T01:22:49.308Z,13.19
2023-05-11T01:23:49.256Z,13.18
2023-05-11T01:24:49.361Z,13.18
2023-05-11T01:25:49.423Z,13.15
2023-05-11T01:26:49.273Z,13.18
2023-05-11T01:27:49.195Z,13.22
2023-05-11T01:28:49.241Z,13.21
2023-05-11T01:29:50.287Z,13.24
2023-05-11T01:30:49.128Z,13.30
2023-05-11T01:31:49.240Z,13.39
2023-05-11T01:32:49.210Z,13.46
2023-05-11T01:33:49.230Z,13.49
2023-05-11T01:34:49.088Z,13.53
2023-05-11T01:35:49.257Z,13.53
2023-05-11T01:36:49.167Z,13.47
2023-05-11T01:37:49.297Z,13.39
2023-05-11T01:38:49.038Z,13.41
2023-05-11T01:39:49.249Z,13.37
2023-05-11T01:40:49.059Z,13.41
2023-05-11T01:41:49.226Z,13.41
2023-05-11T01:42:49.051Z,13.43
2023-05-11T01:43:49.622Z,13.39
2023-05-11T01:44:49.008Z,13.37
2023-05-11T01:45:51.269Z,13.39
2023-05-11T01:46:48.993Z,13.33
2023-05-11T01:47:49.048Z,13.35
2023-05-11T01:48:49.024Z,13.33
2023-05-11T01:49:49.104Z,13.35
2023-05-11T01:50:49.595Z,13.41
2023-05-11T01:51:48.896Z,13.43
2023-05-11T01:52:49.056Z,13.49
2023-05-11T01:53:48.986Z,13.46
2023-05-11T01:54:48.972Z,13.50
2023-05-11T01:55:49.633Z,13.53
2023-05-11T01:56:48.925Z,13.56
2023-05-11T01:57:48.995Z,13.53
2023-05-11T01:58:49.133Z,13.59
2023-05-11T01:59:49.056Z,13.60
2023-05-11T02:00:48.675Z,13.63
2023-05-11T02:01:49.039Z,13.63
2023-05-11T02:02:48.883Z,13.63
2023-05-11T02:03:48.957Z,13.64
2023-05-11T02:04:48.764Z,13.68
2023-05-11T02:05:48.873Z,13.65
2023-05-11T02:06:48.747Z,13.63
2023-05-11T02:07:48.904Z,13.67
2023-05-11T02:08:48.746Z,13.70
2023-05-11T02:09:48.783Z,13.67
2023-05-11T02:10:48.865Z,13.68
2023-05-11T02:11:48.827Z,13.68
2023-05-11T02:12:48.801Z,13.64
2023-05-11T02:13:48.806Z,13.60
2023-05-11T02:14:48.745Z,13.60
2023-05-11T02:15:48.583Z,13.59
2023-05-11T02:16:48.798Z,13.59
2023-05-11T02:17:48.741Z,13.57
2023-05-11T02:18:48.778Z,13.52
2023-05-11T02:19:48.676Z,13.46
2023-05-11T02:20:48.777Z,13.41
2023-05-11T02:21:48.557Z,13.46
2023-05-11T02:22:48.852Z,13.49
2023-05-11T02:23:48.646Z,13.53
2023-05-11T02:24:48.775Z,13.52
2023-05-11T02:25:48.656Z,13.55
2023-05-11T02:26:48.695Z,13.57
2023-05-11T02:27:48.621Z,13.55
2023-05-11T02:28:48.726Z,13.52
2023-05-11T02:29:48.606Z,13.52
2023-05-11T02:30:48.391Z,13.55
2023-05-11T02:31:48.773Z,13.55
2023-05-11T02:32:48.601Z,13.57
2023-05-11T02:33:51.543Z,13.55
2023-05-11T02:34:48.474Z,13.59
2023-05-11T02:35:48.694Z,13.50
2023-05-11T02:36:48.396Z,13.45
2023-05-11T02:37:49.575Z,13.31
2023-05-11T02:38:48.436Z,13.37
2023-05-11T02:39:48.473Z,13.35
2023-05-11T02:40:48.534Z,13.30
2023-05-11T02:41:48.454Z,13.31
2023-05-11T02:42:48.626Z,13.33
2023-05-11T02:43:48.545Z,13.29
2023-05-11T02:44:48.551Z,13.29
2023-05-11T02:45:48.532Z,13.24
2023-05-11T02:46:48.417Z,13.19
2023-05-11T02:47:48.381Z,13.13
2023-05-11T02:48:48.510Z,13.16
2023-05-11T02:49:48.354Z,13.15
2023-05-11T02:50:48.714Z,13.12
2023-05-11T02:51:48.353Z,13.09
2023-05-11T02:52:48.672Z,13.15
2023-05-11T02:53:49.583Z,13.15
2023-05-11T02:54:48.509Z,13.13
2023-05-11T02:55:48.540Z,13.12
2023-05-11T02:56:48.389Z,13.12
2023-05-11T02:57:48.325Z,13.13
2023-05-11T02:58:49.122Z,13.15
2023-05-11T02:59:48.246Z,13.18
2023-05-11T03:00:48.760Z,13.19
2023-05-11T03:01:48.541Z,13.26
2023-05-11T03:02:48.214Z,13.26
2023-05-11T03:03:48.541Z,13.30
2023-05-11T03:04:48.077Z,13.22
2023-05-11T03:05:48.298Z,13.16
2023-05-11T03:06:48.139Z,13.18
2023-05-11T03:07:48.264Z,13.18
2023-05-11T03:08:48.065Z,13.18
2023-05-11T03:09:48.246Z,13.19
2023-05-11T03:10:48.118Z,13.15
2023-05-11T03:11:48.258Z,13.19
2023-05-11T03:12:48.208Z,13.18
2023-05-11T03:13:48.111Z,13.19
2023-05-11T03:14:48.114Z,13.22
2023-05-11T03:15:48.138Z,13.24
2023-05-11T03:16:48.156Z,13.26
2023-05-11T03:17:48.113Z,13.22
2023-05-11T03:18:48.200Z,13.18
2023-05-11T03:19:48.940Z,13.15
2023-05-11T03:20:48.117Z,13.09
2023-05-11T03:21:48.151Z,13.03
2023-05-11T03:22:48.091Z,13.01
2023-05-11T03:23:47.956Z,13.08
2023-05-11T03:24:48.113Z,13.05
2023-05-11T03:25:47.927Z,13.13
2023-05-11T03:26:48.143Z,13.15
2023-05-11T03:27:47.938Z,13.16
2023-05-11T03:28:48.181Z,13.21
2023-05-11T03:29:47.951Z,13.24
2023-05-11T03:30:48.002Z,13.18
2023-05-11T03:31:50.974Z,13.15
2023-05-11T03:32:48.099Z,13.21
2023-05-11T03:33:48.049Z,13.26
2023-05-11T03:34:47.794Z,13.30
2023-05-11T03:35:47.943Z,13.33
2023-05-11T03:36:47.814Z,13.39
2023-05-11T03:37:47.913Z,13.38
2023-05-11T03:38:47.841Z,13.35
2023-05-11T03:39:47.929Z,13.38
2023-05-11T03:40:47.820Z,13.29
2023-05-11T03:41:47.944Z,13.29
2023-05-11T03:42:47.894Z,13.31
2023-05-11T03:43:49.833Z,13.37
2023-05-11T03:44:47.780Z,13.38
2023-05-11T03:45:47.852Z,13.38
2023-05-11T03:46:52.918Z,13.38
2023-05-11T03:47:47.794Z,13.29
2023-05-11T03:48:47.760Z,13.22
2023-05-11T03:49:47.562Z,13.29
2023-05-11T03:50:48.273Z,13.38
2023-05-11T03:51:47.706Z,13.43
2023-05-11T03:52:48.127Z,13.43
2023-05-11T03:53:47.556Z,13.46
2023-05-11T03:54:47.727Z,13.52
2023-05-11T03:55:47.609Z,13.50
2023-05-11T03:56:47.747Z,13.53
2023-05-11T03:57:47.585Z,13.46
2023-05-11T03:58:47.727Z,13.43
2023-05-11T03:59:47.719Z,13.38
2023-05-11T04:00:47.697Z,13.33
2023-05-11T04:01:47.644Z,13.37
2023-05-11T04:02:47.734Z,13.41
2023-05-11T04:03:47.850Z,13.38
2023-05-11T04:04:47.609Z,13.41
2023-05-11T04:05:47.594Z,13.46
2023-05-11T04:06:47.593Z,13.46
2023-05-11T04:07:47.634Z,13.45
2023-05-11T04:08:47.484Z,13.49
2023-05-11T04:09:48.517Z,13.50
2023-05-11T04:10:47.566Z,13.57
2023-05-11T04:11:47.736Z,13.55
2023-05-11T04:12:47.646Z,13.55
2023-05-11T04:13:47.547Z,13.63
2023-05-11T04:14:47.405Z,13.70
2023-05-11T04:15:47.558Z,13.75
2023-05-11T04:16:47.608Z,13.80
2023-05-11T04:17:47.781Z,13.77
2023-05-11T04:18:47.528Z,13.82
2023-05-11T04:19:47.357Z,13.82
2023-05-11T04:20:47.413Z,13.78
2023-05-11T04:21:47.294Z,13.83
2023-05-11T04:22:47.403Z,13.85
2023-05-11T04:23:46.915Z,13.88
2023-05-11T04:24:47.566Z,13.88
2023-05-11T04:25:47.308Z,13.92
2023-05-11T04:26:47.954Z,13.89
2023-05-11T04:27:47.325Z,13.78
2023-05-11T04:28:47.942Z,13.77
2023-05-11T04:29:47.304Z,13.75
2023-05-11T04:30:48.515Z,13.82
2023-05-11T04:31:47.298Z,13.92
2023-05-11T04:32:47.548Z,14.00
2023-05-11T04:33:47.313Z,14.01
2023-05-11T04:34:48.006Z,14.03
2023-05-11T04:35:47.395Z,14.04
2023-05-11T04:36:47.753Z,14.03
2023-05-11T04:37:47.363Z,14.01
2023-05-11T04:38:47.364Z,14.04
2023-05-11T04:39:47.293Z,14.03
2023-05-11T04:40:46.774Z,14.07
2023-05-11T04:41:47.701Z,14.08
2023-05-11T04:42:47.766Z,14.14
2023-05-11T04:43:47.912Z,14.19
2023-05-11T04:44:47.796Z,14.28
2023-05-11T04:45:47.173Z,14.33
2023-05-11T04:46:47.325Z,14.36
2023-05-11T04:47:46.467Z,14.38
2023-05-11T04:48:47.964Z,14.47
2023-05-11T04:49:46.966Z,14.56
2023-05-11T04:50:48.326Z,14.63
2023-05-11T04:51:46.972Z,14.73
2023-05-11T04:52:47.324Z,14.69
2023-05-11T04:53:46.345Z,14.69
2023-05-11T04:54:47.876Z,14.82
2023-05-11T04:55:46.943Z,14.88
2023-05-11T04:56:46.291Z,14.91
2023-05-11T04:57:47.838Z,14.85
2023-05-11T04:58:46.285Z,14.82
2023-05-11T04:59:47.339Z,14.87
2023-05-11T05:00:47.220Z,14.97
2023-05-11T05:01:46.984Z,15.00
2023-05-11T05:02:47.222Z,15.04
2023-05-11T05:03:47.777Z,15.07
2023-05-11T05:04:46.251Z,15.15
2023-05-11T05:05:46.197Z,15.04
2023-05-11T05:06:47.435Z,15.02
2023-05-11T05:07:47.317Z,15.12
2023-05-11T05:08:46.245Z,15.06
2023-05-11T05:09:46.149Z,15.00
2023-05-11T05:10:47.610Z,14.91
2023-05-11T05:11:47.083Z,14.89
2023-05-11T05:12:47.126Z,14.99
2023-05-11T05:13:47.343Z,15.06
2023-05-11T05:14:46.124Z,15.15
2023-05-11T05:15:46.084Z,15.24
2023-05-11T05:16:46.172Z,15.27
2023-05-11T05:17:47.119Z,15.36
2023-05-11T05:18:46.940Z,15.52
2023-05-11T05:19:47.087Z,15.61
2023-05-11T05:20:46.107Z,15.68
2023-05-11T05:21:47.081Z,15.85
2023-05-11T05:22:46.086Z,15.75
2023-05-11T05:23:47.924Z,15.82
2023-05-11T05:24:47.098Z,15.91
2023-05-11T05:25:46.643Z,16.06
2023-05-11T05:26:46.988Z,16.17
2023-05-11T05:27:46.937Z,16.15
2023-05-11T05:28:46.749Z,16.13
2023-05-11T05:29:46.673Z,16.16
2023-05-11T05:30:45.974Z,16.17
2023-05-11T05:31:46.718Z,16.32
2023-05-11T05:32:46.892Z,16.49
2023-05-11T05:33:47.648Z,16.25
2023-05-11T05:34:46.788Z,16.29
2023-05-11T05:35:46.668Z,16.47
2023-05-11T05:36:46.513Z,16.46
2023-05-11T05:37:46.729Z,16.65
2023-05-11T05:38:46.427Z,16.82
2023-05-11T05:39:48.402Z,16.62
2023-05-11T05:40:45.876Z,16.66
2023-05-11T05:41:45.825Z,16.62
2023-05-11T05:42:47.215Z,16.32
2023-05-11T05:43:46.668Z,16.46
2023-05-11T05:44:46.459Z,16.62
2023-05-11T05:45:46.598Z,16.82
2023-05-11T05:46:46.551Z,17.06
2023-05-11T05:47:46.727Z,16.68
2023-05-11T05:48:46.698Z,16.69
2023-05-11T05:49:46.624Z,16.76
2023-05-11T05:50:46.668Z,16.62
2023-05-11T05:51:46.630Z,16.79
2023-05-11T05:52:46.999Z,16.76
2023-05-11T05:53:46.337Z,16.80
2023-05-11T05:54:46.708Z,16.59
2023-05-11T05:55:46.366Z,16.71
2023-05-11T05:56:46.536Z,16.79
2023-05-11T05:57:46.364Z,16.80
2023-05-11T05:58:46.461Z,16.76
2023-05-11T05:59:46.377Z,16.86
2023-05-11T06:00:46.466Z,16.75
2023-05-11T06:01:46.397Z,16.93
2023-05-11T06:02:46.617Z,16.96
2023-05-11T06:03:46.638Z,16.99
2023-05-11T06:04:46.503Z,17.11
2023-05-11T06:05:46.405Z,17.02
2023-05-11T06:06:46.202Z,17.12
2023-05-11T06:07:54.400Z,17.26
2023-05-11T06:08:46.142Z,16.65
2023-05-11T06:09:46.400Z,16.64
2023-05-11T06:10:46.281Z,16.80
2023-05-11T06:11:46.295Z,16.94
2023-05-11T06:12:46.280Z,17.16
2023-05-11T06:13:45.534Z,17.11
2023-05-11T06:14:47.386Z,17.11
2023-05-11T06:15:47.736Z,17.22
2023-05-11T06:16:45.557Z,16.99
2023-05-11T06:17:46.266Z,16.83
2023-05-11T06:18:46.317Z,16.94
2023-05-11T06:19:46.575Z,17.16
2023-05-11T06:20:45.713Z,17.17
2023-05-11T06:21:45.387Z,17.12
2023-05-11T06:22:46.214Z,17.11
2023-05-11T06:23:46.046Z,16.98
2023-05-11T06:24:45.385Z,17.11
2023-05-11T06:25:46.052Z,17.23
2023-05-11T06:26:46.185Z,17.41
2023-05-11T06:27:45.955Z,17.54
2023-05-11T06:28:46.195Z,17.57
2023-05-11T06:29:46.095Z,17.63
2023-05-11T06:30:46.204Z,17.48
2023-05-11T06:31:46.005Z,17.49
2023-05-11T06:32:46.165Z,17.79
2023-05-11T06:33:45.986Z,17.70
2023-05-11T06:34:46.161Z,17.88
2023-05-11T06:35:45.986Z,17.83
2023-05-11T06:36:46.096Z,17.63
2023-05-11T06:37:45.997Z,17.54
2023-05-11T06:38:45.938Z,17.44
2023-05-11T06:39:45.940Z,17.68
2023-05-11T06:40:45.276Z,17.95
2023-05-11T06:41:45.995Z,17.97
2023-05-11T06:42:45.865Z,18.20
2023-05-11T06:43:45.961Z,18.05
2023-05-11T06:44:45.975Z,18.05
2023-05-11T06:45:45.281Z,18.03
2023-05-11T06:46:45.894Z,18.00
2023-05-11T06:47:46.010Z,18.05
2023-05-11T06:48:45.132Z,18.25
2023-05-11T06:49:45.981Z,17.97
2023-05-11T06:50:45.869Z,18.10
2023-05-11T06:51:45.161Z,18.38
2023-05-11T06:52:45.828Z,18.56
2023-05-11T06:53:45.088Z,18.62
2023-05-11T06:54:45.838Z,18.85
2023-05-11T06:55:45.813Z,18.85
2023-05-11T06:56:45.076Z,18.67
2023-05-11T06:57:46.770Z,18.52
2023-05-11T06:58:45.849Z,18.56
2023-05-11T06:59:45.729Z,18.49
2023-05-11T07:00:45.872Z,18.75
2023-05-11T07:01:45.720Z,19.05
2023-05-11T07:02:45.032Z,19.22
2023-05-11T07:03:45.856Z,19.27
2023-05-11T07:04:45.821Z,19.15
2023-05-11T07:05:44.992Z,19.18
2023-05-11T07:06:46.674Z,19.09
2023-05-11T07:07:46.208Z,19.09
2023-05-11T07:08:46.536Z,18.99
2023-05-11T07:09:45.726Z,18.80
2023-05-11T07:10:45.486Z,19.11
2023-05-11T07:11:45.705Z,19.39
2023-05-11T07:12:45.535Z,19.15
2023-05-11T07:13:44.868Z,18.88
2023-05-11T07:14:45.519Z,18.78
2023-05-11T07:15:44.847Z,18.59
2023-05-11T07:16:45.575Z,18.74
2023-05-11T07:17:45.708Z,18.89
2023-05-11T07:18:45.653Z,18.92
2023-05-11T07:19:45.637Z,19.12
2023-05-11T07:20:44.826Z,19.24
2023-05-11T07:21:45.677Z,19.41
2023-05-11T07:22:44.825Z,19.70
2023-05-11T07:23:46.449Z,19.78
2023-05-11T07:24:45.513Z,19.81
2023-05-11T07:25:44.757Z,19.74
2023-05-11T07:26:45.611Z,19.94
2023-05-11T07:27:45.488Z,19.89
2023-05-11T07:28:45.567Z,19.84
2023-05-11T07:29:45.381Z,19.84
2023-05-11T07:30:45.558Z,19.67
2023-05-11T07:31:45.541Z,20.03
2023-05-11T07:32:45.523Z,20.44
2023-05-11T07:33:44.664Z,20.71
2023-05-11T07:34:46.347Z,20.97
2023-05-11T07:35:45.449Z,21.18
2023-05-11T07:36:45.603Z,20.97
2023-05-11T07:37:45.386Z,21.18
2023-05-11T07:38:45.525Z,21.29
2023-05-11T07:39:44.583Z,21.50
2023-05-11T07:40:45.184Z,21.37
2023-05-11T07:41:44.603Z,21.66
2023-05-11T07:42:45.365Z,21.66
2023-05-11T07:43:45.996Z,21.66
2023-05-11T07:44:46.225Z,21.63
2023-05-11T07:45:45.349Z,21.72
2023-05-11T07:46:44.589Z,21.54
2023-05-11T07:47:46.635Z,21.67
2023-05-11T07:48:45.244Z,21.42
2023-05-11T07:49:45.307Z,21.32
2023-05-11T07:50:45.490Z,21.03
2023-05-11T07:51:45.312Z,21.15
2023-05-11T07:52:45.181Z,21.06
2023-05-11T07:53:45.357Z,20.99
2023-05-11T07:54:45.196Z,20.90
2023-05-11T07:55:45.045Z,21.10
2023-05-11T07:56:45.327Z,21.26
2023-05-11T07:57:45.026Z,21.11
2023-05-11T07:58:45.276Z,21.15
2023-05-11T07:59:45.231Z,21.20
2023-05-11T08:00:45.217Z,20.95
2023-05-11T08:01:45.032Z,20.77
2023-05-11T08:02:45.368Z,20.85
2023-05-11T08:03:45.023Z,20.72
2023-05-11T08:04:45.171Z,20.80
2023-05-11T08:05:45.075Z,21.10
2023-05-11T08:06:45.264Z,21.33
2023-05-11T08:07:44.294Z,21.30
2023-05-11T08:08:45.081Z,21.29
2023-05-11T08:09:44.294Z,20.99
2023-05-11T08:10:44.863Z,21.14
2023-05-11T08:11:45.081Z,21.42
2023-05-11T08:12:44.925Z,21.90
2023-05-11T08:13:45.030Z,22.04
2023-05-11T08:14:44.895Z,22.08
2023-05-11T08:15:45.077Z,21.82
2023-05-11T08:16:45.015Z,21.65
2023-05-11T08:17:44.697Z,21.50
2023-05-11T08:18:44.960Z,21.43
2023-05-11T08:19:44.945Z,21.50
2023-05-11T08:20:45.048Z,21.99
2023-05-11T08:21:45.050Z,22.29
2023-05-11T08:22:44.967Z,22.35
2023-05-11T08:23:45.243Z,22.41
2023-05-11T08:24:44.943Z,22.25
2023-05-11T08:25:44.838Z,21.85
2023-05-11T08:26:45.642Z,22.08
2023-05-11T08:27:44.692Z,22.41
2023-05-11T08:28:45.037Z,22.47
2023-05-11T08:29:44.791Z,22.45
2023-05-11T08:30:44.886Z,22.29
2023-05-11T08:31:44.756Z,22.83
2023-05-11T08:33:44.887Z,22.95
2023-05-11T08:34:44.984Z,23.14
2023-05-11T08:35:44.081Z,22.70
2023-05-11T08:36:44.817Z,22.44
2023-05-11T08:37:45.530Z,22.50
2023-05-11T08:38:45.870Z,22.35
2023-05-11T08:39:47.668Z,22.32
2023-05-11T08:40:45.635Z,22.38
2023-05-11T08:41:44.019Z,22.50
2023-05-11T08:42:44.620Z,22.48
2023-05-11T08:43:44.767Z,22.11
2023-05-11T08:44:44.638Z,21.45
2023-05-11T08:45:43.908Z,21.76
2023-05-11T08:46:44.588Z,22.11
2023-05-11T08:47:44.797Z,22.10
2023-05-11T08:48:43.980Z,22.03
2023-05-11T08:49:44.716Z,22.35
2023-05-11T08:50:44.576Z,22.60
2023-05-11T08:51:44.645Z,22.70
2023-05-11T08:52:44.586Z,23.00
2023-05-11T08:53:44.685Z,22.40
2023-05-11T08:54:44.543Z,22.03
2023-05-11T08:55:43.858Z,22.56
2023-05-11T08:56:45.386Z,23.05
2023-05-11T08:57:44.785Z,22.78
2023-05-11T08:58:44.573Z,22.60
2023-05-11T08:59:44.514Z,22.58
2023-05-11T09:00:44.572Z,22.40
2023-05-11T09:01:44.375Z,22.73
2023-05-11T09:02:44.564Z,22.69
2023-05-11T09:03:44.414Z,22.35
2023-05-11T09:04:46.679Z,22.28
2023-05-11T09:05:44.535Z,22.13
2023-05-11T09:06:43.716Z,21.65
2023-05-11T09:07:44.398Z,21.61
2023-05-11T09:08:44.589Z,21.96
2023-05-11T09:09:43.654Z,21.93
2023-05-11T09:10:45.407Z,21.74
2023-05-11T09:11:44.736Z,21.48
2023-05-11T09:12:44.312Z,21.42
2023-05-11T09:13:44.454Z,21.50
2023-05-11T09:14:44.267Z,21.18
2023-05-11T09:15:44.198Z,21.10
2023-05-11T09:16:44.626Z,21.02
2023-05-11T09:17:45.178Z,20.56
2023-05-11T09:18:43.616Z,20.39
2023-05-11T09:19:44.416Z,20.41
2023-05-11T09:20:45.436Z,20.34
2023-05-11T09:21:44.345Z,20.15
2023-05-11T09:22:44.319Z,20.26
2023-05-11T09:23:44.316Z,20.34
2023-05-11T09:24:44.250Z,20.10
2023-05-11T09:25:44.307Z,20.21
2023-05-11T09:26:44.276Z,20.26
2023-05-11T09:27:44.148Z,20.26
2023-05-11T09:28:46.185Z,20.65
2023-05-11T09:29:51.884Z,20.80
2023-05-11T09:30:44.271Z,20.74
2023-05-11T09:31:45.327Z,20.44
2023-05-11T09:32:45.238Z,20.44
2023-05-11T09:33:44.191Z,20.39
2023-05-11T09:34:44.307Z,20.59
2023-05-11T09:35:44.177Z,20.95
2023-05-11T09:36:44.310Z,21.40
2023-05-11T09:37:44.108Z,21.72
2023-05-11T09:38:44.254Z,21.59
2023-05-11T09:39:59.212Z,21.72
2023-05-11T09:40:44.969Z,21.54
2023-05-11T09:41:44.258Z,21.96
2023-05-11T09:42:44.006Z,22.26
2023-05-11T09:43:44.318Z,22.33
2023-05-11T09:44:43.910Z,22.29
2023-05-11T09:45:44.174Z,22.38
2023-05-11T09:46:44.076Z,21.96
2023-05-11T09:47:44.220Z,22.40
2023-05-11T09:48:44.270Z,22.68
2023-05-11T09:49:44.193Z,22.66
2023-05-11T09:50:43.974Z,23.09
2023-05-11T09:51:44.609Z,22.85
2023-05-11T09:52:43.981Z,22.75
2023-05-11T09:53:44.147Z,23.33
2023-05-11T09:54:43.219Z,22.96
2023-05-11T09:55:44.578Z,22.60
2023-05-11T09:56:44.199Z,22.05
2023-05-11T09:57:43.731Z,22.45
2023-05-11T09:58:43.180Z,22.38
2023-05-11T09:59:43.968Z,22.85
2023-05-11T10:00:43.395Z,23.05
2023-05-11T10:01:44.679Z,23.36
2023-05-11T10:02:44.010Z,23.17
2023-05-11T10:03:43.455Z,22.87
2023-05-11T10:04:44.648Z,23.15
2023-05-11T10:05:43.930Z,23.05
2023-05-11T10:06:44.938Z,22.10
2023-05-11T10:07:44.838Z,21.81
2023-05-11T10:08:43.910Z,22.23
2023-05-11T10:09:43.810Z,22.17
2023-05-11T10:10:43.895Z,22.08
2023-05-11T10:11:43.058Z,22.47
2023-05-11T10:12:43.888Z,22.88
2023-05-11T10:13:43.829Z,23.37
2023-05-11T10:14:44.158Z,23.81
2023-05-11T10:15:43.885Z,22.98
2023-05-11T10:16:43.844Z,22.25
2023-05-11T10:17:44.434Z,21.66
2023-05-11T10:18:44.289Z,21.42
2023-05-11T10:19:42.928Z,21.02
2023-05-11T10:20:44.770Z,21.00
2023-05-11T10:21:44.488Z,21.06
2023-05-11T10:22:42.989Z,21.89
2023-05-11T10:23:44.667Z,22.54
2023-05-11T10:24:42.909Z,23.03
2023-05-11T10:25:45.068Z,22.95
2023-05-11T10:26:44.419Z,23.31
2023-05-11T10:27:42.826Z,22.62
2023-05-11T10:28:44.462Z,21.93
2023-05-11T10:29:43.948Z,21.48
2023-05-11T10:30:43.069Z,21.03
2023-05-11T10:31:44.168Z,21.05
2023-05-11T10:32:43.723Z,20.97
2023-05-11T10:33:43.529Z,20.80
2023-05-11T10:34:43.718Z,20.72
2023-05-11T10:35:44.427Z,20.74
2023-05-11T10:36:43.623Z,21.63
2023-05-11T10:37:43.439Z,22.32
2023-05-11T10:38:42.782Z,22.66
2023-05-11T10:39:43.447Z,22.91
2023-05-11T10:40:43.734Z,22.66
2023-05-11T10:41:43.495Z,22.66
2023-05-11T10:42:42.712Z,22.78
2023-05-11T10:43:43.494Z,23.21
2023-05-11T10:44:42.666Z,23.22
2023-05-11T10:45:44.405Z,22.78
2023-05-11T10:46:43.287Z,22.19
2023-05-11T10:47:42.691Z,21.72
2023-05-11T10:48:44.475Z,21.43
2023-05-11T10:49:43.860Z,21.11
2023-05-11T10:50:43.524Z,21.12
2023-05-11T10:51:42.659Z,20.89
2023-05-11T10:52:43.373Z,20.82
2023-05-11T10:53:43.456Z,20.90
2023-05-11T10:54:43.703Z,20.55
2023-05-11T10:55:44.126Z,20.59
2023-05-11T10:56:43.329Z,20.89
2023-05-11T10:57:42.953Z,21.06
2023-05-11T10:58:42.516Z,21.32
2023-05-11T10:59:43.153Z,21.26
2023-05-11T11:00:42.518Z,21.43
2023-05-11T11:01:44.314Z,21.37
2023-05-11T11:02:43.552Z,21.42
2023-05-11T11:03:43.226Z,21.30
2023-05-11T11:04:43.508Z,21.20
2023-05-11T11:05:43.142Z,21.03
2023-05-11T11:06:42.442Z,20.78
2023-05-11T11:07:44.348Z,20.63
2023-05-11T11:08:43.486Z,20.26
2023-05-11T11:09:43.117Z,20.19
2023-05-11T11:10:43.287Z,20.25
2023-05-11T11:11:43.567Z,20.25
2023-05-11T11:12:43.176Z,20.40
2023-05-11T11:13:42.398Z,20.37
2023-05-11T11:14:43.844Z,20.34
2023-05-11T11:15:43.099Z,20.24
2023-05-11T11:16:43.077Z,20.36
2023-05-11T11:17:43.207Z,20.59
2023-05-11T11:18:43.079Z,20.48
2023-05-11T11:19:42.347Z,20.72
2023-05-11T11:20:42.968Z,20.81
2023-05-11T11:21:42.409Z,20.62
2023-05-11T11:22:43.057Z,20.62
2023-05-11T11:23:43.113Z,20.48
2023-05-11T11:24:44.131Z,20.53
2023-05-11T11:25:43.105Z,20.47
2023-05-11T11:26:42.258Z,20.26
2023-05-11T11:27:43.999Z,20.18
2023-05-11T11:28:42.958Z,20.00
2023-05-11T11:29:43.179Z,20.03
2023-05-11T11:30:44.059Z,20.03
2023-05-11T11:31:42.896Z,19.89
2023-05-11T11:32:45.459Z,19.89
2023-05-11T11:33:42.227Z,19.89
2023-05-11T11:34:43.045Z,19.94
2023-05-11T11:35:43.050Z,19.86
2023-05-11T11:36:43.002Z,19.91
2023-05-11T11:37:43.519Z,19.91
2023-05-11T11:38:43.020Z,19.88
2023-05-11T11:39:42.860Z,19.82
2023-05-11T11:40:50.526Z,19.51
2023-05-11T11:41:42.847Z,19.41
2023-05-11T11:42:42.116Z,19.51
2023-05-11T11:43:42.768Z,19.54
2023-05-11T11:44:43.127Z,19.42
2023-05-11T11:45:43.731Z,19.48
2023-05-11T11:46:42.914Z,19.51
2023-05-11T11:47:42.040Z,19.63
2023-05-11T11:48:43.692Z,19.66
2023-05-11T11:49:43.206Z,19.79
2023-05-11T11:50:42.020Z,19.86
2023-05-11T11:51:42.851Z,20.00
2023-05-11T11:52:41.999Z,20.10
2023-05-11T11:53:42.965Z,20.11
2023-05-11T11:54:42.000Z,20.19
2023-05-11T11:55:42.727Z,20.36
2023-05-11T11:56:42.736Z,20.72
2023-05-11T11:57:41.938Z,20.69
2023-05-11T11:58:43.486Z,21.00
2023-05-11T11:59:42.684Z,21.18
2023-05-11T12:00:41.908Z,21.17
2023-05-11T12:01:42.435Z,21.02
2023-05-11T12:02:41.990Z,20.80
2023-05-11T12:03:42.561Z,20.80
2023-05-11T12:04:41.895Z,20.81
2023-05-11T12:05:42.464Z,20.93
2023-05-11T12:06:42.695Z,21.10
2023-05-11T12:07:41.815Z,21.18
2023-05-11T12:08:43.504Z,20.99
2023-05-11T12:09:42.502Z,20.95
2023-05-11T12:10:43.565Z,20.85
2023-05-11T12:11:42.587Z,20.77
2023-05-11T12:12:42.582Z,20.85
2023-05-11T12:13:41.744Z,20.89
2023-05-11T12:14:43.113Z,20.89
2023-05-11T12:15:42.786Z,20.62
2023-05-11T12:16:42.700Z,20.67
2023-05-11T12:17:43.293Z,20.77
2023-05-11T12:18:42.466Z,20.66
2023-05-11T12:19:42.573Z,20.62
2023-05-11T12:20:43.131Z,20.72
2023-05-11T12:21:41.650Z,20.77
2023-05-11T12:22:43.457Z,20.69
2023-05-11T12:23:43.130Z,20.80
2023-05-11T12:24:41.658Z,20.75
2023-05-11T12:25:43.590Z,20.66
2023-05-11T12:26:43.071Z,20.84
2023-05-11T12:27:42.432Z,21.05
2023-05-11T12:28:42.404Z,21.24
2023-05-11T12:29:42.443Z,21.63
2023-05-11T12:30:42.302Z,22.08
2023-05-11T12:31:42.719Z,22.25
2023-05-11T12:32:42.502Z,22.41
2023-05-11T12:33:41.563Z,22.28
2023-05-11T12:34:42.331Z,22.17
2023-05-11T12:35:42.272Z,22.07
2023-05-11T12:36:42.316Z,22.04
2023-05-11T12:37:42.255Z,21.98
2023-05-11T12:38:42.308Z,21.93
2023-05-11T12:39:42.174Z,22.08
2023-05-11T12:40:43.266Z,22.10
2023-05-11T12:41:42.235Z,22.15
2023-05-11T12:42:41.505Z,21.89
2023-05-11T12:43:42.269Z,21.92
2023-05-11T12:44:42.228Z,22.14
2023-05-11T12:45:42.209Z,22.22
2023-05-11T12:46:42.964Z,22.23
2023-05-11T12:47:42.509Z,21.69
2023-05-11T12:48:41.637Z,21.40
2023-05-11T12:49:42.987Z,21.48
2023-05-11T12:50:42.227Z,21.42
2023-05-11T12:51:42.230Z,21.40
2023-05-11T12:52:41.325Z,21.18
2023-05-11T12:53:42.194Z,21.02